APL Denmark — A8JX9 — position and weather

sailwx.info

Track history (hours):
 
Tides and Currents Weather Stations Pressure Air Temp Water Temp Dewpoint Dewpoint Depression Visibility Wind Speed Wind Dir Waves Ship Positions

APL Denmark

Last reported at 2015-Mar-04 02:28 UTC. Time now 2015-Mar-04 02:54 UTC.
Position S 23°56' W 046°20'.

Length 277 m; beam 40 m; draft 14 m.

Type: Cargo ship. MMSI: 636091157.

Date/timePositionNaut miles runAvg speedWind from/ knotsBaromVisibWave heightAir tempDewpointWater temp
2015-Mar-04 02:28S 23°56' W 046°20'0 0.0
2015-Mar-04 01:28S 23°56' W 046°20'0 0.0
2015-Mar-04 00:22S 23°56' W 046°20'0 0.0
2015-Mar-03 23:28S 23°56' W 046°20'2 1.9
2015-Mar-03 22:33S 23°57' W 046°19'6 6.1
2015-Mar-03 21:33S 24°03' W 046°21'8 8.3
2015-Mar-03 20:34S 24°03' W 046°12'5 4.4
2015-Mar-03 19:24S 24°04' W 046°06'0 0.5
2015-Mar-03 18:29S 24°03' W 046°06'  
Track history (hours):
 
Tides and Currents Weather Stations Pressure Air Temp Water Temp Dewpoint Dewpoint Depression Visibility Wind Speed Wind Dir Waves Ship Positions

APL Denmark

Last reported at 2015-Mar-04 02:28 UTC. Time now 2015-Mar-04 02:54 UTC.
Position S 23°56' W 046°20'.

Length 277 m; beam 40 m; draft 14 m.

Type: Cargo ship. MMSI: 636091157.

Date/timePositionNaut miles runAvg speedWind from/ knotsBaromVisibWave heightAir tempDewpointWater temp
2015-Mar-04 02:28S 23°56' W 046°20'0 0.0
2015-Mar-04 01:28S 23°56' W 046°20'0 0.0
2015-Mar-04 00:22S 23°56' W 046°20'0 0.0
2015-Mar-03 23:28S 23°56' W 046°20'2 1.9
2015-Mar-03 22:33S 23°57' W 046°19'6 6.1
2015-Mar-03 21:33S 24°03' W 046°21'8 8.3
2015-Mar-03 20:34S 24°03' W 046°12'5 4.4
2015-Mar-03 19:24S 24°04' W 046°06'0 0.5
2015-Mar-03 18:29S 24°03' W 046°06'  

Dump ship's entire track history